sensor_id;sensor_type;location;lat;lon;timestamp;P1;durP1;ratioP1;P2;durP2;ratioP2
82265;SDS011;71866;53.340;-6.308;2023-10-31T00:02:16;49.00;;;22.13;;
82265;SDS011;71866;53.340;-6.308;2023-10-31T00:04:42;47.03;;;20.75;;
82265;SDS011;71866;53.340;-6.308;2023-10-31T00:07:10;40.30;;;17.98;;
82265;SDS011;71866;53.340;-6.308;2023-10-31T00:09:37;40.90;;;18.63;;
82265;SDS011;71866;53.340;-6.308;2023-10-31T00:12:04;42.05;;;19.08;;
82265;SDS011;71866;53.340;-6.308;2023-10-31T00:14:31;42.33;;;17.33;;
82265;SDS011;71866;53.340;-6.308;2023-10-31T00:16:59;41.47;;;16.08;;
82265;SDS011;71866;53.340;-6.308;2023-10-31T00:19:26;40.33;;;16.70;;
82265;SDS011;71866;53.340;-6.308;2023-10-31T00:21:53;38.88;;;17.83;;
82265;SDS011;71866;53.340;-6.308;2023-10-31T00:24:20;37.80;;;15.13;;
82265;SDS011;71866;53.340;-6.308;2023-10-31T00:26:47;32.95;;;14.65;;
82265;SDS011;71866;53.340;-6.308;2023-10-31T00:29:15;32.83;;;14.77;;
82265;SDS011;71866;53.340;-6.308;2023-10-31T00:31:41;34.75;;;14.90;;
82265;SDS011;71866;53.340;-6.308;2023-10-31T00:34:08;40.92;;;16.88;;
82265;SDS011;71866;53.340;-6.308;2023-10-31T00:36:37;36.03;;;15.65;;
82265;SDS011;71866;53.340;-6.308;2023-10-31T00:39:05;39.05;;;15.65;;
82265;SDS011;71866;53.340;-6.308;2023-10-31T00:41:32;34.28;;;14.70;;
82265;SDS011;71866;53.340;-6.308;2023-10-31T00:44:00;33.45;;;15.05;;
82265;SDS011;71866;53.340;-6.308;2023-10-31T00:46:28;32.95;;;14.75;;
82265;SDS011;71866;53.340;-6.308;2023-10-31T00:48:55;39.38;;;15.70;;
82265;SDS011;71866;53.340;-6.308;2023-10-31T00:51:22;34.53;;;14.20;;
82265;SDS011;71866;53.340;-6.308;2023-10-31T00:53:49;33.75;;;14.27;;
82265;SDS011;71866;53.340;-6.308;2023-10-31T00:56:17;31.42;;;13.65;;
82265;SDS011;71866;53.340;-6.308;2023-10-31T00:58:45;30.92;;;13.40;;
82265;SDS011;71866;53.340;-6.308;2023-10-31T01:01:13;28.10;;;12.15;;
82265;SDS011;71866;53.340;-6.308;2023-10-31T01:03:42;23.65;;;11.98;;
82265;SDS011;71866;53.340;-6.308;2023-10-31T01:06:10;29.27;;;13.88;;
82265;SDS011;71866;53.340;-6.308;2023-10-31T01:08:38;22.30;;;12.25;;
82265;SDS011;71866;53.340;-6.308;2023-10-31T01:11:04;26.77;;;12.60;;
82265;SDS011;71866;53.340;-6.308;2023-10-31T01:13:31;30.60;;;14.00;;
82265;SDS011;71866;53.340;-6.308;2023-10-31T01:15:59;29.55;;;12.73;;
82265;SDS011;71866;53.340;-6.308;2023-10-31T01:18:27;25.02;;;12.63;;
82265;SDS011;71866;53.340;-6.308;2023-10-31T01:20:53;31.40;;;12.77;;
82265;SDS011;71866;53.340;-6.308;2023-10-31T01:23:21;29.48;;;11.52;;
82265;SDS011;71866;53.340;-6.308;2023-10-31T01:25:48;26.25;;;11.27;;
82265;SDS011;71866;53.340;-6.308;2023-10-31T01:28:15;30.42;;;12.82;;
82265;SDS011;71866;53.340;-6.308;2023-10-31T01:30:43;27.48;;;12.02;;
82265;SDS011;71866;53.340;-6.308;2023-10-31T01:33:09;23.45;;;10.73;;
82265;SDS011;71866;53.340;-6.308;2023-10-31T01:35:36;26.20;;;11.68;;
82265;SDS011;71866;53.340;-6.308;2023-10-31T01:38:04;24.60;;;10.15;;
82265;SDS011;71866;53.340;-6.308;2023-10-31T01:40:30;27.05;;;10.45;;
82265;SDS011;71866;53.340;-6.308;2023-10-31T01:42:58;21.30;;;9.93;;
82265;SDS011;71866;53.340;-6.308;2023-10-31T01:45:25;20.65;;;9.30;;
82265;SDS011;71866;53.340;-6.308;2023-10-31T01:47:52;22.23;;;9.27;;
82265;SDS011;71866;53.340;-6.308;2023-10-31T01:50:22;19.42;;;8.43;;
82265;SDS011;71866;53.340;-6.308;2023-10-31T01:52:50;19.73;;;8.48;;
82265;SDS011;71866;53.340;-6.308;2023-10-31T01:55:18;15.95;;;7.57;;
82265;SDS011;71866;53.340;-6.308;2023-10-31T01:57:46;17.08;;;7.30;;
82265;SDS011;71866;53.340;-6.308;2023-10-31T02:00:15;18.05;;;7.93;;
82265;SDS011;71866;53.340;-6.308;2023-10-31T02:02:42;15.25;;;7.13;;
82265;SDS011;71866;53.340;-6.308;2023-10-31T02:05:10;14.30;;;7.15;;
82265;SDS011;71866;53.340;-6.308;2023-10-31T02:07:38;14.82;;;6.75;;
82265;SDS011;71866;53.340;-6.308;2023-10-31T02:10:05;15.25;;;7.28;;
82265;SDS011;71866;53.340;-6.308;2023-10-31T02:12:33;21.67;;;9.82;;
82265;SDS011;71866;53.340;-6.308;2023-10-31T02:15:07;17.30;;;8.48;;
82265;SDS011;71866;53.340;-6.308;2023-10-31T02:17:34;14.25;;;6.50;;
82265;SDS011;71866;53.340;-6.308;2023-10-31T02:20:01;13.50;;;6.35;;
82265;SDS011;71866;53.340;-6.308;2023-10-31T02:22:29;19.58;;;8.90;;
82265;SDS011;71866;53.340;-6.308;2023-10-31T02:24:56;14.23;;;7.75;;
82265;SDS011;71866;53.340;-6.308;2023-10-31T02:27:24;12.07;;;6.53;;
82265;SDS011;71866;53.340;-6.308;2023-10-31T02:29:51;11.25;;;6.22;;
82265;SDS011;71866;53.340;-6.308;2023-10-31T02:32:18;10.27;;;5.68;;
82265;SDS011;71866;53.340;-6.308;2023-10-31T02:34:45;12.60;;;7.05;;
82265;SDS011;71866;53.340;-6.308;2023-10-31T02:37:12;12.85;;;6.60;;
82265;SDS011;71866;53.340;-6.308;2023-10-31T02:39:40;10.68;;;4.53;;
82265;SDS011;71866;53.340;-6.308;2023-10-31T02:42:07;7.45;;;4.80;;
82265;SDS011;71866;53.340;-6.308;2023-10-31T02:44:34;8.90;;;4.97;;
82265;SDS011;71866;53.340;-6.308;2023-10-31T02:47:01;11.55;;;5.53;;
82265;SDS011;71866;53.340;-6.308;2023-10-31T02:49:28;9.07;;;4.78;;
82265;SDS011;71866;53.340;-6.308;2023-10-31T02:51:55;6.15;;;3.65;;
82265;SDS011;71866;53.340;-6.308;2023-10-31T02:54:22;4.68;;;2.72;;
82265;SDS011;71866;53.340;-6.308;2023-10-31T02:56:49;5.32;;;2.60;;
82265;SDS011;71866;53.340;-6.308;2023-10-31T02:59:16;3.63;;;2.20;;
82265;SDS011;71866;53.340;-6.308;2023-10-31T03:01:43;3.28;;;2.03;;
82265;SDS011;71866;53.340;-6.308;2023-10-31T03:04:10;5.35;;;1.98;;
82265;SDS011;71866;53.340;-6.308;2023-10-31T03:06:37;4.90;;;2.35;;
82265;SDS011;71866;53.340;-6.308;2023-10-31T03:09:05;4.05;;;2.30;;
82265;SDS011;71866;53.340;-6.308;2023-10-31T03:11:33;4.82;;;2.22;;
82265;SDS011;71866;53.340;-6.308;2023-10-31T03:13:59;5.78;;;2.05;;
82265;SDS011;71866;53.340;-6.308;2023-10-31T03:16:27;5.10;;;2.50;;
82265;SDS011;71866;53.340;-6.308;2023-10-31T03:18:54;2.90;;;2.08;;
82265;SDS011;71866;53.340;-6.308;2023-10-31T03:21:22;5.70;;;1.80;;
82265;SDS011;71866;53.340;-6.308;2023-10-31T03:23:48;6.03;;;2.28;;
82265;SDS011;71866;53.340;-6.308;2023-10-31T03:26:17;4.18;;;2.10;;
82265;SDS011;71866;53.340;-6.308;2023-10-31T03:28:44;6.85;;;2.53;;
82265;SDS011;71866;53.340;-6.308;2023-10-31T03:31:14;5.63;;;2.90;;
82265;SDS011;71866;53.340;-6.308;2023-10-31T03:33:41;3.53;;;2.42;;
82265;SDS011;71866;53.340;-6.308;2023-10-31T03:36:09;3.92;;;2.03;;
82265;SDS011;71866;53.340;-6.308;2023-10-31T03:38:36;3.22;;;2.08;;
82265;SDS011;71866;53.340;-6.308;2023-10-31T03:41:04;4.05;;;2.13;;
82265;SDS011;71866;53.340;-6.308;2023-10-31T03:43:31;4.30;;;2.47;;
82265;SDS011;71866;53.340;-6.308;2023-10-31T03:45:58;3.55;;;2.25;;
82265;SDS011;71866;53.340;-6.308;2023-10-31T03:48:26;3.03;;;1.58;;
82265;SDS011;71866;53.340;-6.308;2023-10-31T03:50:52;4.53;;;1.80;;
82265;SDS011;71866;53.340;-6.308;2023-10-31T03:53:20;6.43;;;1.92;;
82265;SDS011;71866;53.340;-6.308;2023-10-31T03:55:46;3.38;;;2.13;;
82265;SDS011;71866;53.340;-6.308;2023-10-31T03:58:14;3.78;;;2.00;;
82265;SDS011;71866;53.340;-6.308;2023-10-31T04:00:42;6.22;;;2.70;;
82265;SDS011;71866;53.340;-6.308;2023-10-31T04:03:09;3.90;;;2.28;;
82265;SDS011;71866;53.340;-6.308;2023-10-31T04:05:36;4.72;;;2.33;;
82265;SDS011;71866;53.340;-6.308;2023-10-31T04:08:03;5.38;;;2.50;;
82265;SDS011;71866;53.340;-6.308;2023-10-31T04:10:31;4.10;;;2.20;;
82265;SDS011;71866;53.340;-6.308;2023-10-31T04:12:57;4.38;;;2.75;;
82265;SDS011;71866;53.340;-6.308;2023-10-31T04:15:25;4.85;;;2.50;;
82265;SDS011;71866;53.340;-6.308;2023-10-31T04:17:52;3.53;;;2.35;;
82265;SDS011;71866;53.340;-6.308;2023-10-31T04:20:19;5.82;;;2.30;;
82265;SDS011;71866;53.340;-6.308;2023-10-31T04:22:46;5.63;;;2.70;;
82265;SDS011;71866;53.340;-6.308;2023-10-31T04:25:14;4.30;;;2.70;;
82265;SDS011;71866;53.340;-6.308;2023-10-31T04:27:41;5.20;;;2.50;;
82265;SDS011;71866;53.340;-6.308;2023-10-31T04:30:08;6.22;;;3.03;;
82265;SDS011;71866;53.340;-6.308;2023-10-31T04:32:40;7.57;;;2.60;;
82265;SDS011;71866;53.340;-6.308;2023-10-31T04:35:08;6.72;;;3.25;;
82265;SDS011;71866;53.340;-6.308;2023-10-31T04:37:35;9.30;;;3.50;;
82265;SDS011;71866;53.340;-6.308;2023-10-31T04:40:02;7.32;;;3.75;;
82265;SDS011;71866;53.340;-6.308;2023-10-31T04:42:31;9.88;;;4.28;;
82265;SDS011;71866;53.340;-6.308;2023-10-31T04:44:58;9.45;;;4.18;;
82265;SDS011;71866;53.340;-6.308;2023-10-31T04:47:26;8.20;;;4.07;;
82265;SDS011;71866;53.340;-6.308;2023-10-31T04:49:53;8.55;;;3.88;;
82265;SDS011;71866;53.340;-6.308;2023-10-31T04:52:22;10.02;;;4.38;;
82265;SDS011;71866;53.340;-6.308;2023-10-31T04:54:51;10.73;;;4.72;;
82265;SDS011;71866;53.340;-6.308;2023-10-31T04:57:19;9.27;;;4.20;;
82265;SDS011;71866;53.340;-6.308;2023-10-31T04:59:46;9.05;;;4.07;;
82265;SDS011;71866;53.340;-6.308;2023-10-31T05:02:12;10.07;;;4.53;;
82265;SDS011;71866;53.340;-6.308;2023-10-31T05:04:40;10.05;;;4.35;;
82265;SDS011;71866;53.340;-6.308;2023-10-31T05:07:07;10.00;;;5.00;;
82265;SDS011;71866;53.340;-6.308;2023-10-31T05:09:35;9.45;;;4.22;;
82265;SDS011;71866;53.340;-6.308;2023-10-31T05:12:02;9.70;;;4.60;;
82265;SDS011;71866;53.340;-6.308;2023-10-31T05:14:30;7.68;;;4.30;;
82265;SDS011;71866;53.340;-6.308;2023-10-31T05:16:56;9.57;;;5.22;;
82265;SDS011;71866;53.340;-6.308;2023-10-31T05:19:23;10.02;;;4.80;;
82265;SDS011;71866;53.340;-6.308;2023-10-31T05:21:54;10.95;;;5.03;;
82265;SDS011;71866;53.340;-6.308;2023-10-31T05:24:20;8.93;;;4.75;;
82265;SDS011;71866;53.340;-6.308;2023-10-31T05:26:48;10.88;;;4.80;;
82265;SDS011;71866;53.340;-6.308;2023-10-31T05:29:14;11.13;;;4.30;;
82265;SDS011;71866;53.340;-6.308;2023-10-31T05:31:42;7.82;;;3.25;;
82265;SDS011;71866;53.340;-6.308;2023-10-31T05:34:09;6.78;;;3.10;;
82265;SDS011;71866;53.340;-6.308;2023-10-31T05:36:38;7.25;;;3.35;;
82265;SDS011;71866;53.340;-6.308;2023-10-31T05:39:04;7.63;;;3.90;;
82265;SDS011;71866;53.340;-6.308;2023-10-31T05:41:35;6.22;;;3.30;;
82265;SDS011;71866;53.340;-6.308;2023-10-31T05:44:02;6.53;;;3.17;;
82265;SDS011;71866;53.340;-6.308;2023-10-31T05:46:29;5.82;;;3.25;;
82265;SDS011;71866;53.340;-6.308;2023-10-31T05:48:56;7.20;;;3.30;;
82265;SDS011;71866;53.340;-6.308;2023-10-31T05:51:22;8.80;;;3.75;;
82265;SDS011;71866;53.340;-6.308;2023-10-31T05:53:50;8.48;;;4.07;;
82265;SDS011;71866;53.340;-6.308;2023-10-31T05:56:17;7.93;;;4.18;;
82265;SDS011;71866;53.340;-6.308;2023-10-31T05:58:44;9.48;;;3.90;;
82265;SDS011;71866;53.340;-6.308;2023-10-31T06:01:13;9.07;;;4.25;;
82265;SDS011;71866;53.340;-6.308;2023-10-31T06:03:42;8.23;;;3.67;;
82265;SDS011;71866;53.340;-6.308;2023-10-31T06:06:10;5.57;;;3.30;;
82265;SDS011;71866;53.340;-6.308;2023-10-31T06:08:39;7.25;;;3.85;;
82265;SDS011;71866;53.340;-6.308;2023-10-31T06:11:07;7.97;;;3.53;;
82265;SDS011;71866;53.340;-6.308;2023-10-31T06:13:33;6.50;;;3.47;;
82265;SDS011;71866;53.340;-6.308;2023-10-31T06:16:00;8.13;;;3.80;;
82265;SDS011;71866;53.340;-6.308;2023-10-31T06:18:28;7.35;;;3.63;;
82265;SDS011;71866;53.340;-6.308;2023-10-31T06:20:55;8.38;;;4.03;;
82265;SDS011;71866;53.340;-6.308;2023-10-31T06:23:23;7.43;;;4.13;;
82265;SDS011;71866;53.340;-6.308;2023-10-31T06:25:49;6.63;;;3.25;;
82265;SDS011;71866;53.340;-6.308;2023-10-31T06:28:16;8.25;;;3.92;;
82265;SDS011;71866;53.340;-6.308;2023-10-31T06:30:44;7.97;;;4.43;;
82265;SDS011;71866;53.340;-6.308;2023-10-31T06:33:11;7.78;;;4.05;;
82265;SDS011;71866;53.340;-6.308;2023-10-31T06:35:38;6.93;;;3.70;;
82265;SDS011;71866;53.340;-6.308;2023-10-31T06:38:05;7.20;;;3.45;;
82265;SDS011;71866;53.340;-6.308;2023-10-31T06:40:32;6.30;;;3.30;;
82265;SDS011;71866;53.340;-6.308;2023-10-31T06:43:00;6.47;;;3.20;;
82265;SDS011;71866;53.340;-6.308;2023-10-31T06:45:27;6.57;;;3.80;;
82265;SDS011;71866;53.340;-6.308;2023-10-31T06:47:55;8.70;;;4.38;;
82265;SDS011;71866;53.340;-6.308;2023-10-31T06:50:22;7.95;;;3.83;;
82265;SDS011;71866;53.340;-6.308;2023-10-31T06:52:48;9.90;;;5.18;;
82265;SDS011;71866;53.340;-6.308;2023-10-31T06:55:16;9.65;;;4.45;;
82265;SDS011;71866;53.340;-6.308;2023-10-31T06:57:43;8.38;;;3.72;;
82265;SDS011;71866;53.340;-6.308;2023-10-31T07:00:11;8.52;;;4.13;;
82265;SDS011;71866;53.340;-6.308;2023-10-31T07:02:39;9.60;;;4.18;;
82265;SDS011;71866;53.340;-6.308;2023-10-31T07:05:09;8.00;;;3.80;;
82265;SDS011;71866;53.340;-6.308;2023-10-31T07:07:36;8.80;;;4.28;;
82265;SDS011;71866;53.340;-6.308;2023-10-31T07:10:02;7.60;;;3.60;;
82265;SDS011;71866;53.340;-6.308;2023-10-31T07:12:30;8.30;;;4.53;;
82265;SDS011;71866;53.340;-6.308;2023-10-31T07:14:58;8.25;;;3.97;;
82265;SDS011;71866;53.340;-6.308;2023-10-31T07:17:25;10.55;;;4.70;;
82265;SDS011;71866;53.340;-6.308;2023-10-31T07:19:53;11.88;;;4.97;;
82265;SDS011;71866;53.340;-6.308;2023-10-31T07:22:21;9.18;;;4.75;;
82265;SDS011;71866;53.340;-6.308;2023-10-31T07:24:50;10.40;;;4.97;;
82265;SDS011;71866;53.340;-6.308;2023-10-31T07:27:19;9.82;;;4.72;;
82265;SDS011;71866;53.340;-6.308;2023-10-31T07:29:46;12.77;;;5.13;;
82265;SDS011;71866;53.340;-6.308;2023-10-31T07:32:13;11.65;;;4.93;;
82265;SDS011;71866;53.340;-6.308;2023-10-31T07:34:41;10.38;;;5.00;;
82265;SDS011;71866;53.340;-6.308;2023-10-31T07:37:08;12.13;;;5.38;;
82265;SDS011;71866;53.340;-6.308;2023-10-31T07:39:36;14.35;;;5.57;;
82265;SDS011;71866;53.340;-6.308;2023-10-31T07:42:05;9.60;;;4.85;;
82265;SDS011;71866;53.340;-6.308;2023-10-31T07:44:34;11.63;;;5.13;;
82265;SDS011;71866;53.340;-6.308;2023-10-31T07:47:01;10.10;;;5.03;;
82265;SDS011;71866;53.340;-6.308;2023-10-31T07:49:31;11.68;;;5.20;;
82265;SDS011;71866;53.340;-6.308;2023-10-31T07:52:03;9.43;;;4.65;;
82265;SDS011;71866;53.340;-6.308;2023-10-31T07:54:31;8.43;;;4.22;;
82265;SDS011;71866;53.340;-6.308;2023-10-31T07:57:03;5.82;;;3.15;;
82265;SDS011;71866;53.340;-6.308;2023-10-31T07:59:35;7.22;;;3.60;;
82265;SDS011;71866;53.340;-6.308;2023-10-31T08:02:06;5.75;;;3.25;;
82265;SDS011;71866;53.340;-6.308;2023-10-31T08:04:33;5.97;;;3.50;;
82265;SDS011;71866;53.340;-6.308;2023-10-31T08:07:04;6.10;;;3.03;;
82265;SDS011;71866;53.340;-6.308;2023-10-31T08:09:33;4.80;;;2.80;;
82265;SDS011;71866;53.340;-6.308;2023-10-31T08:11:59;4.03;;;2.28;;
82265;SDS011;71866;53.340;-6.308;2023-10-31T08:14:30;4.28;;;2.55;;
82265;SDS011;71866;53.340;-6.308;2023-10-31T08:16:58;4.63;;;2.75;;
82265;SDS011;71866;53.340;-6.308;2023-10-31T08:19:27;4.53;;;2.28;;
82265;SDS011;71866;53.340;-6.308;2023-10-31T08:21:53;6.57;;;2.20;;
82265;SDS011;71866;53.340;-6.308;2023-10-31T08:24:24;4.50;;;2.28;;
82265;SDS011;71866;53.340;-6.308;2023-10-31T08:26:52;5.55;;;2.60;;
82265;SDS011;71866;53.340;-6.308;2023-10-31T08:29:21;3.72;;;2.28;;
82265;SDS011;71866;53.340;-6.308;2023-10-31T08:31:51;4.75;;;2.72;;
82265;SDS011;71866;53.340;-6.308;2023-10-31T08:34:21;5.97;;;2.80;;
82265;SDS011;71866;53.340;-6.308;2023-10-31T08:36:48;5.45;;;2.88;;
82265;SDS011;71866;53.340;-6.308;2023-10-31T08:39:15;4.97;;;2.83;;
82265;SDS011;71866;53.340;-6.308;2023-10-31T08:41:50;4.88;;;2.30;;
82265;SDS011;71866;53.340;-6.308;2023-10-31T08:44:21;5.70;;;2.38;;
82265;SDS011;71866;53.340;-6.308;2023-10-31T08:46:49;4.50;;;2.35;;
82265;SDS011;71866;53.340;-6.308;2023-10-31T08:49:16;2.75;;;2.15;;
82265;SDS011;71866;53.340;-6.308;2023-10-31T08:51:43;2.65;;;1.52;;
82265;SDS011;71866;53.340;-6.308;2023-10-31T08:54:12;2.75;;;1.85;;
82265;SDS011;71866;53.340;-6.308;2023-10-31T08:56:38;4.40;;;2.40;;
82265;SDS011;71866;53.340;-6.308;2023-10-31T08:59:06;4.97;;;2.28;;
82265;SDS011;71866;53.340;-6.308;2023-10-31T09:01:34;3.20;;;2.08;;
82265;SDS011;71866;53.340;-6.308;2023-10-31T09:04:01;4.57;;;2.10;;
82265;SDS011;71866;53.340;-6.308;2023-10-31T09:06:28;3.78;;;2.20;;
82265;SDS011;71866;53.340;-6.308;2023-10-31T09:08:55;3.35;;;2.30;;
82265;SDS011;71866;53.340;-6.308;2023-10-31T09:11:21;5.28;;;2.47;;
82265;SDS011;71866;53.340;-6.308;2023-10-31T09:13:49;5.18;;;2.60;;
82265;SDS011;71866;53.340;-6.308;2023-10-31T09:16:17;3.90;;;2.65;;
82265;SDS011;71866;53.340;-6.308;2023-10-31T09:18:43;4.00;;;2.13;;
82265;SDS011;71866;53.340;-6.308;2023-10-31T09:21:10;4.45;;;2.20;;
82265;SDS011;71866;53.340;-6.308;2023-10-31T09:23:38;4.78;;;2.35;;
82265;SDS011;71866;53.340;-6.308;2023-10-31T09:26:04;5.45;;;2.40;;
82265;SDS011;71866;53.340;-6.308;2023-10-31T09:28:32;3.55;;;1.77;;
82265;SDS011;71866;53.340;-6.308;2023-10-31T09:30:59;3.10;;;2.00;;
82265;SDS011;71866;53.340;-6.308;2023-10-31T09:33:25;3.60;;;2.00;;
82265;SDS011;71866;53.340;-6.308;2023-10-31T09:35:53;4.18;;;2.40;;
82265;SDS011;71866;53.340;-6.308;2023-10-31T09:38:21;1.45;;;1.08;;
82265;SDS011;71866;53.340;-6.308;2023-10-31T09:40:47;1.58;;;1.17;;
82265;SDS011;71866;53.340;-6.308;2023-10-31T09:43:14;1.83;;;1.17;;
82265;SDS011;71866;53.340;-6.308;2023-10-31T09:45:42;2.25;;;1.50;;
82265;SDS011;71866;53.340;-6.308;2023-10-31T09:48:08;2.38;;;1.10;;
82265;SDS011;71866;53.340;-6.308;2023-10-31T09:50:37;2.63;;;1.38;;
82265;SDS011;71866;53.340;-6.308;2023-10-31T09:53:05;3.08;;;1.38;;
82265;SDS011;71866;53.340;-6.308;2023-10-31T09:55:34;2.22;;;1.55;;
82265;SDS011;71866;53.340;-6.308;2023-10-31T09:58:02;1.42;;;1.27;;
82265;SDS011;71866;53.340;-6.308;2023-10-31T10:00:29;1.15;;;0.90;;
82265;SDS011;71866;53.340;-6.308;2023-10-31T10:02:57;1.77;;;1.30;;
82265;SDS011;71866;53.340;-6.308;2023-10-31T10:05:24;2.17;;;1.40;;
82265;SDS011;71866;53.340;-6.308;2023-10-31T10:07:53;3.03;;;1.42;;
82265;SDS011;71866;53.340;-6.308;2023-10-31T10:10:22;3.05;;;1.27;;
82265;SDS011;71866;53.340;-6.308;2023-10-31T10:12:52;4.50;;;1.30;;
82265;SDS011;71866;53.340;-6.308;2023-10-31T10:15:20;1.83;;;0.80;;
82265;SDS011;71866;53.340;-6.308;2023-10-31T10:17:50;2.03;;;1.30;;
82265;SDS011;71866;53.340;-6.308;2023-10-31T10:20:18;2.03;;;1.20;;
82265;SDS011;71866;53.340;-6.308;2023-10-31T10:22:46;1.50;;;1.15;;
82265;SDS011;71866;53.340;-6.308;2023-10-31T10:25:14;2.72;;;1.25;;
82265;SDS011;71866;53.340;-6.308;2023-10-31T10:27:43;4.93;;;1.38;;
82265;SDS011;71866;53.340;-6.308;2023-10-31T10:30:10;2.47;;;1.05;;
82265;SDS011;71866;53.340;-6.308;2023-10-31T10:32:40;2.05;;;1.25;;
82265;SDS011;71866;53.340;-6.308;2023-10-31T10:35:07;2.25;;;1.35;;
82265;SDS011;71866;53.340;-6.308;2023-10-31T10:37:36;2.30;;;1.58;;
82265;SDS011;71866;53.340;-6.308;2023-10-31T10:40:05;3.42;;;1.52;;
82265;SDS011;71866;53.340;-6.308;2023-10-31T10:42:33;1.30;;;0.90;;
82265;SDS011;71866;53.340;-6.308;2023-10-31T10:45:11;1.58;;;0.88;;
82265;SDS011;71866;53.340;-6.308;2023-10-31T10:47:40;2.38;;;1.33;;
82265;SDS011;71866;53.340;-6.308;2023-10-31T10:50:14;3.85;;;1.50;;
82265;SDS011;71866;53.340;-6.308;2023-10-31T10:55:25;2.58;;;1.35;;
82265;SDS011;71866;53.340;-6.308;2023-10-31T10:58:00;1.48;;;1.20;;
82265;SDS011;71866;53.340;-6.308;2023-10-31T11:00:31;2.33;;;1.40;;
82265;SDS011;71866;53.340;-6.308;2023-10-31T11:02:59;3.80;;;1.63;;
82265;SDS011;71866;53.340;-6.308;2023-10-31T11:05:27;2.50;;;1.80;;
82265;SDS011;71866;53.340;-6.308;2023-10-31T11:07:55;1.60;;;1.30;;
82265;SDS011;71866;53.340;-6.308;2023-10-31T11:10:25;1.55;;;1.25;;
82265;SDS011;71866;53.340;-6.308;2023-10-31T11:12:54;2.38;;;1.30;;
82265;SDS011;71866;53.340;-6.308;2023-10-31T11:15:22;1.88;;;1.20;;
82265;SDS011;71866;53.340;-6.308;2023-10-31T11:17:51;2.70;;;1.30;;
82265;SDS011;71866;53.340;-6.308;2023-10-31T11:20:20;2.45;;;1.30;;
82265;SDS011;71866;53.340;-6.308;2023-10-31T11:22:47;1.38;;;0.90;;
82265;SDS011;71866;53.340;-6.308;2023-10-31T11:25:20;0.93;;;0.93;;
82265;SDS011;71866;53.340;-6.308;2023-10-31T11:28:10;1.98;;;0.93;;
82265;SDS011;71866;53.340;-6.308;2023-10-31T11:30:39;1.20;;;1.05;;
82265;SDS011;71866;53.340;-6.308;2023-10-31T11:33:07;1.90;;;0.90;;
82265;SDS011;71866;53.340;-6.308;2023-10-31T11:35:40;1.35;;;1.17;;
82265;SDS011;71866;53.340;-6.308;2023-10-31T11:38:08;2.72;;;0.70;;
82265;SDS011;71866;53.340;-6.308;2023-10-31T11:40:37;2.15;;;1.02;;
82265;SDS011;71866;53.340;-6.308;2023-10-31T11:43:24;1.85;;;1.52;;
82265;SDS011;71866;53.340;-6.308;2023-10-31T11:45:51;2.10;;;1.20;;
82265;SDS011;71866;53.340;-6.308;2023-10-31T11:48:18;0.80;;;0.80;;
82265;SDS011;71866;53.340;-6.308;2023-10-31T11:51:12;1.10;;;0.90;;
82265;SDS011;71866;53.340;-6.308;2023-10-31T11:53:43;2.20;;;0.90;;
82265;SDS011;71866;53.340;-6.308;2023-10-31T11:56:12;1.95;;;0.90;;
82265;SDS011;71866;53.340;-6.308;2023-10-31T11:58:39;1.85;;;0.70;;
82265;SDS011;71866;53.340;-6.308;2023-10-31T12:01:08;0.73;;;0.73;;
82265;SDS011;71866;53.340;-6.308;2023-10-31T12:03:40;2.33;;;0.90;;
82265;SDS011;71866;53.340;-6.308;2023-10-31T12:06:10;2.08;;;0.90;;
82265;SDS011;71866;53.340;-6.308;2023-10-31T12:08:38;1.98;;;1.02;;
82265;SDS011;71866;53.340;-6.308;2023-10-31T12:11:09;0.60;;;0.60;;
82265;SDS011;71866;53.340;-6.308;2023-10-31T12:13:39;1.73;;;1.00;;
82265;SDS011;71866;53.340;-6.308;2023-10-31T12:16:10;1.15;;;0.90;;
82265;SDS011;71866;53.340;-6.308;2023-10-31T12:18:37;2.10;;;1.10;;
82265;SDS011;71866;53.340;-6.308;2023-10-31T12:21:05;1.63;;;1.00;;
82265;SDS011;71866;53.340;-6.308;2023-10-31T12:23:33;0.98;;;0.70;;
82265;SDS011;71866;53.340;-6.308;2023-10-31T12:26:01;5.05;;;0.93;;
82265;SDS011;71866;53.340;-6.308;2023-10-31T12:28:28;1.10;;;0.90;;
82265;SDS011;71866;53.340;-6.308;2023-10-31T12:30:56;4.80;;;1.25;;
82265;SDS011;71866;53.340;-6.308;2023-10-31T12:33:24;2.13;;;0.90;;
82265;SDS011;71866;53.340;-6.308;2023-10-31T12:36:00;1.60;;;0.70;;
82265;SDS011;71866;53.340;-6.308;2023-10-31T12:38:27;0.73;;;0.60;;
82265;SDS011;71866;53.340;-6.308;2023-10-31T12:40:56;1.92;;;0.90;;
82265;SDS011;71866;53.340;-6.308;2023-10-31T12:43:24;3.00;;;0.77;;
82265;SDS011;71866;53.340;-6.308;2023-10-31T12:45:50;2.67;;;0.80;;
82265;SDS011;71866;53.340;-6.308;2023-10-31T12:48:23;2.20;;;1.02;;
82265;SDS011;71866;53.340;-6.308;2023-10-31T12:50:50;1.77;;;1.10;;
82265;SDS011;71866;53.340;-6.308;2023-10-31T12:53:33;2.42;;;1.08;;
82265;SDS011;71866;53.340;-6.308;2023-10-31T12:56:00;2.75;;;1.05;;
82265;SDS011;71866;53.340;-6.308;2023-10-31T12:58:26;1.40;;;1.00;;
82265;SDS011;71866;53.340;-6.308;2023-10-31T13:00:54;1.88;;;1.15;;
82265;SDS011;71866;53.340;-6.308;2023-10-31T13:03:22;3.03;;;1.27;;
82265;SDS011;71866;53.340;-6.308;2023-10-31T13:05:49;1.52;;;1.27;;
82265;SDS011;71866;53.340;-6.308;2023-10-31T13:08:16;5.43;;;1.45;;
82265;SDS011;71866;53.340;-6.308;2023-10-31T13:13:12;1.50;;;1.17;;
82265;SDS011;71866;53.340;-6.308;2023-10-31T13:15:39;2.33;;;1.42;;
82265;SDS011;71866;53.340;-6.308;2023-10-31T13:18:08;2.10;;;1.23;;
82265;SDS011;71866;53.340;-6.308;2023-10-31T13:20:35;4.28;;;1.50;;
82265;SDS011;71866;53.340;-6.308;2023-10-31T13:23:03;4.57;;;1.52;;
82265;SDS011;71866;53.340;-6.308;2023-10-31T13:25:29;4.95;;;2.15;;
82265;SDS011;71866;53.340;-6.308;2023-10-31T13:27:57;3.58;;;1.90;;
82265;SDS011;71866;53.340;-6.308;2023-10-31T13:30:24;3.95;;;1.75;;
82265;SDS011;71866;53.340;-6.308;2023-10-31T13:32:52;4.03;;;2.20;;
82265;SDS011;71866;53.340;-6.308;2023-10-31T13:35:19;3.83;;;2.10;;
82265;SDS011;71866;53.340;-6.308;2023-10-31T13:37:45;2.92;;;1.83;;
82265;SDS011;71866;53.340;-6.308;2023-10-31T13:40:13;2.78;;;1.67;;
82265;SDS011;71866;53.340;-6.308;2023-10-31T13:42:39;2.15;;;1.60;;
82265;SDS011;71866;53.340;-6.308;2023-10-31T13:45:07;3.78;;;2.03;;
82265;SDS011;71866;53.340;-6.308;2023-10-31T13:47:35;2.97;;;1.80;;
82265;SDS011;71866;53.340;-6.308;2023-10-31T13:50:02;5.88;;;2.28;;
82265;SDS011;71866;53.340;-6.308;2023-10-31T13:52:30;5.75;;;2.20;;
82265;SDS011;71866;53.340;-6.308;2023-10-31T13:54:56;3.78;;;1.80;;
82265;SDS011;71866;53.340;-6.308;2023-10-31T13:57:24;2.95;;;1.95;;
82265;SDS011;71866;53.340;-6.308;2023-10-31T13:59:51;4.07;;;2.03;;
82265;SDS011;71866;53.340;-6.308;2023-10-31T14:02:18;4.15;;;2.15;;
82265;SDS011;71866;53.340;-6.308;2023-10-31T14:04:48;2.80;;;1.70;;
82265;SDS011;71866;53.340;-6.308;2023-10-31T14:07:25;3.33;;;2.03;;
82265;SDS011;71866;53.340;-6.308;2023-10-31T14:09:56;3.20;;;2.00;;
82265;SDS011;71866;53.340;-6.308;2023-10-31T14:12:23;2.38;;;1.80;;
82265;SDS011;71866;53.340;-6.308;2023-10-31T14:14:51;2.10;;;1.58;;
82265;SDS011;71866;53.340;-6.308;2023-10-31T14:17:17;5.32;;;2.05;;
82265;SDS011;71866;53.340;-6.308;2023-10-31T14:19:45;4.10;;;1.35;;
82265;SDS011;71866;53.340;-6.308;2023-10-31T14:22:13;3.92;;;1.98;;
82265;SDS011;71866;53.340;-6.308;2023-10-31T14:24:39;4.15;;;2.00;;
82265;SDS011;71866;53.340;-6.308;2023-10-31T14:27:07;2.40;;;1.65;;
82265;SDS011;71866;53.340;-6.308;2023-10-31T14:29:35;2.67;;;1.88;;
82265;SDS011;71866;53.340;-6.308;2023-10-31T14:32:05;4.28;;;1.90;;
82265;SDS011;71866;53.340;-6.308;2023-10-31T14:34:35;2.60;;;1.33;;
82265;SDS011;71866;53.340;-6.308;2023-10-31T14:37:04;1.95;;;1.50;;
82265;SDS011;71866;53.340;-6.308;2023-10-31T14:39:31;2.30;;;1.50;;
82265;SDS011;71866;53.340;-6.308;2023-10-31T14:41:58;5.38;;;1.90;;